Latest Weather Observations for North Head

IDN60801

Issued at 9:12 am EST Tuesday 21 May 2019 (issued every 10 minutes, with the page automatically refreshed every 10 minutes)

About weather observations | Map of weather stations | Latest weather observations for NSW | Other Formats
Station Details ID: 066197 Name: NORTH HEAD Lat: -33.82 Lon: 151.30 Height: 90.0 m
Data from the previous 72 hours. | See also: Recent months at North Head
Date/Time
EST
Temp
°C
App
Temp
°C
Dew
Point
°C
Rel
Hum
%
Delta-T
°C
Wind Press
QNH
hPa
Press
MSL
hPa
Rain since
9am
mm
Dir  Spd
km/h
Gust
km/h
Spd
kts
Gust
kts
21/09:00am - - - - - W 19 24 10 13 - - -
21/08:30am - - - - - WNW 15 20 8 11 - - -
21/08:00am - - - - - W 15 19 8 10 - - -
21/07:30am - - - - - WNW 17 22 9 12 - - -
21/07:00am - - - - - W 15 19 8 10 - - -
21/06:30am - - - - - W 15 19 8 10 - - -
21/06:00am - - - - - W 13 17 7 9 - - -
21/05:30am - - - - - W 15 19 8 10 - - -
21/05:00am - - - - - W 13 15 7 8 - - -
21/04:30am - - - - - NW 13 17 7 9 - - -
21/04:00am - - - - - WNW 15 19 8 10 - - -
21/03:30am - - - - - NW 13 17 7 9 - - -
21/03:00am - - - - - WNW 13 19 7 10 - - -
21/02:30am - - - - - WNW 15 22 8 12 - - -
21/02:00am - - - - - W 11 15 6 8 - - -
21/01:30am - - - - - W 9 13 5 7 - - -
21/01:00am - - - - - NW 13 19 7 10 - - -
21/12:30am - - - - - NW 13 17 7 9 - - -
21/12:00am - - - - - NW 13 17 7 9 - - -
 
Date/Time
EST
Temp
°C
App
Temp
°C
Dew
Point
°C
Rel
Hum
%
Delta-T
°C
Wind Press
QNH
hPa
Press
MSL
hPa
Rain since
9am
mm
Dir  Spd
km/h
Gust
km/h
Spd
kts
Gust
kts
20/11:30pm - - - - - NW 11 15 6 8 - - -
20/11:00pm - - - - - NW 9 13 5 7 - - -
20/10:30pm - - - - - NNW 9 11 5 6 - - -
20/10:00pm - - - - - N 9 13 5 7 - - -
20/09:30pm - - - - - N 13 15 7 8 - - -
20/09:00pm - - - - - NNE 11 17 6 9 - - -
20/08:30pm - - - - - NNE 13 19 7 10 - - -
20/08:00pm - - - - - N 11 15 6 8 - - -
20/07:30pm - - - - - N 11 15 6 8 - - -
20/07:00pm - - - - - N 13 17 7 9 - - -
20/06:30pm - - - - - N 11 17 6 9 - - -
20/06:00pm - - - - - NNE 11 17 6 9 - - -
20/05:30pm - - - - - NNE 15 20 8 11 - - -
20/05:00pm - - - - - NNE 15 20 8 11 - - -
20/04:30pm - - - - - NNE 13 17 7 9 - - -
20/04:00pm - - - - - NNE 15 20 8 11 - - -
20/03:30pm - - - - - NNE 13 19 7 10 - - -
20/03:00pm - - - - - ENE 7 11 4 6 - - -
20/02:30pm - - - - - ENE 9 13 5 7 - - -
20/02:00pm - - - - - ENE 7 13 4 7 - - -
20/01:30pm - - - - - ENE 7 13 4 7 - - -
20/01:00pm - - - - - E 7 11 4 6 - - -
20/12:30pm - - - - - NE 6 9 3 5 - - -
20/12:00pm - - - - - NE 6 9 3 5 - - -
20/11:30am - - - - - ENE 4 6 2 3 - - -
20/11:00am - - - - - S 2 6 1 3 - - -
20/10:30am - - - - - WNW 4 6 2 3 - - -
20/10:00am - - - - - N 6 9 3 5 - - -
20/09:30am - - - - - NNW 6 7 3 4 - - -
20/09:00am - - - - - CALM 0 0 0 0 - - -
20/08:30am - - - - - WNW 6 7 3 4 - - -
20/08:00am - - - - - WNW 9 13 5 7 - - -
20/07:30am - - - - - W 9 13 5 7 - - -
20/07:00am - - - - - WNW 11 15 6 8 - - -
20/06:30am - - - - - W 11 15 6 8 - - -
20/06:00am - - - - - W 11 13 6 7 - - -
20/05:30am - - - - - W 13 15 7 8 - - -
20/05:00am - - - - - WNW 11 13 6 7 - - -
20/04:30am - - - - - W 9 11 5 6 - - -
20/04:00am - - - - - WNW 9 11 5 6 - - -
20/03:30am - - - - - WNW 9 13 5 7 - - -
20/03:00am - - - - - W 11 13 6 7 - - -
20/02:30am - - - - - WNW 9 11 5 6 - - -
20/02:00am - - - - - WNW 13 17 7 9 - - -
20/01:30am - - - - - WNW 11 13 6 7 - - -
20/01:00am - - - - - WNW 9 11 5 6 - - -
20/12:30am - - - - - WNW 7 9 4 5 - - -
20/12:00am - - - - - WNW 7 9 4 5 - - -
 
Date/Time
EST
Temp
°C
App
Temp
°C
Dew
Point
°C
Rel
Hum
%
Delta-T
°C
Wind Press
QNH
hPa
Press
MSL
hPa
Rain since
9am
mm
Dir  Spd
km/h
Gust
km/h
Spd
kts
Gust
kts
19/11:30pm - - - - - W 9 13 5 7 - - -
19/11:00pm - - - - - W 7 9 4 5 - - -
19/10:30pm - - - - - WNW 6 7 3 4 - - -
19/10:00pm - - - - - NNW 6 9 3 5 - - -
19/09:30pm - - - - - N 7 11 4 6 - - -
19/09:00pm - - - - - N 7 11 4 6 - - -
19/08:30pm - - - - - N 7 13 4 7 - - -
19/08:00pm - - - - - NE 15 22 8 12 - - -
19/07:30pm - - - - - ENE 13 20 7 11 - - -
19/07:00pm - - - - - ENE 13 20 7 11 - - -
19/06:30pm - - - - - ENE 13 19 7 10 - - -
19/06:00pm - - - - - ENE 15 22 8 12 - - -
19/05:30pm - - - - - ENE 11 20 6 11 - - -
19/05:00pm - - - - - ENE 11 17 6 9 - - -
19/04:30pm - - - - - E 11 19 6 10 - - -
19/04:00pm - - - - - ENE 11 19 6 10 - - -
19/03:30pm - - - - - E 7 13 4 7 - - -
19/03:00pm - - - - - E 11 17 6 9 - - -
19/02:30pm - - - - - ESE 11 15 6 8 - - -
19/02:00pm - - - - - ESE 9 13 5 7 - - -
19/01:30pm - - - - - ESE 7 13 4 7 - - -
19/01:00pm - - - - - ESE 11 15 6 8 - - -
19/12:30pm - - - - - ESE 9 15 5 8 - - -
19/12:00pm - - - - - SE 9 15 5 8 - - -
19/11:30am - - - - - SSW 6 9 3 5 - - -
19/11:00am - - - - - WSW 6 7 3 4 - - -
19/10:30am - - - - - SW 7 13 4 7 - - -
19/10:00am - - - - - WSW 7 11 4 6 - - -
19/09:30am - - - - - W 6 9 3 5 - - -
19/09:00am - - - - - WNW 7 9 4 5 - - -
19/08:30am - - - - - W 7 11 4 6 - - -
19/08:00am - - - - - WNW 7 9 4 5 - - -
19/07:30am - - - - - W 11 13 6 7 - - -
19/07:00am - - - - - W 9 13 5 7 - - -
19/06:30am - - - - - W 9 11 5 6 - - -
19/06:00am - - - - - WSW 9 11 5 6 - - -
19/05:30am - - - - - W 9 11 5 6 - - -
19/05:00am - - - - - WSW 7 9 4 5 - - -
19/04:30am - - - - - WSW 9 11 5 6 - - -
19/04:00am - - - - - W 9 11 5 6 - - -
19/03:30am - - - - - W 7 11 4 6 - - -
19/03:00am - - - - - W 7 9 4 5 - - -
19/02:30am - - - - - WSW 6 7 3 4 - - -
19/02:00am - - - - - WSW 6 7 3 4 - - -
19/01:30am - - - - - W 7 11 4 6 - - -
19/01:00am - - - - - WSW 9 11 5 6 - - -
19/12:30am - - - - - WSW 7 9 4 5 - - -
19/12:00am - - - - - WNW 7 11 4 6 - - -
 
Date/Time
EST
Temp
°C
App
Temp
°C
Dew
Point
°C
Rel
Hum
%
Delta-T
°C
Wind Press
QNH
hPa
Press
MSL
hPa
Rain since
9am
mm
Dir  Spd
km/h
Gust
km/h
Spd
kts
Gust
kts
18/11:30pm - - - - - W 9 11 5 6 - - -
18/11:00pm - - - - - W 9 13 5 7 - - -
18/10:30pm - - - - - W 9 13 5 7 - - -
18/10:00pm - - - - - W 7 9 4 5 - - -
18/09:30pm - - - - - SE 7 15 4 8 - - -
18/09:00pm - - - - - SE 9 17 5 9 - - -
18/08:30pm - - - - - ESE 15 20 8 11 - - -
18/08:00pm - - - - - ESE 17 28 9 15 - - -
18/07:30pm - - - - - ESE 17 24 9 13 - - -
18/07:00pm - - - - - SSE 7 13 4 7 - - -
18/06:30pm - - - - - SSE 7 13 4 7 - - -
18/06:00pm - - - - - SSE 7 13 4 7 - - -
18/05:30pm - - - - - SE 7 15 4 8 - - -
18/05:00pm - - - - - SSE 7 11 4 6 - - -
18/04:30pm - - - - - SSE 7 13 4 7 - - -
18/04:00pm - - - - - SSE 9 13 5 7 - - -
18/03:30pm - - - - - SSE 9 15 5 8 - - -
18/03:00pm - - - - - SSE 11 19 6 10 - - -
18/02:30pm - - - - - SSE 13 19 7 10 - - -
18/02:00pm - - - - - SSE 13 19 7 10 - - -
18/01:30pm - - - - - SSE 13 19 7 10 - - -
18/01:00pm - - - - - SSE 11 19 6 10 - - -
18/12:30pm - - - - - S 9 17 5 9 - - -
18/12:00pm - - - - - SSW 9 17 5 9 - - -
18/11:30am - - - - - SW 6 11 3 6 - - -
18/11:00am - - - - - WSW 9 13 5 7 - - -
18/10:30am - - - - - SW 9 15 5 8 - - -
18/10:00am - - - - - WSW 11 15 6 8 - - -
18/09:30am - - - - - WSW 11 13 6 7 - - -

Other formats

Comma delimited format used in spreadsheet applications
http://www.bom.gov.au/fwo/IDN60801/IDN60801.95768.axf

JavaScript Object Notation format (JSON) in row-major order
http://www.bom.gov.au/fwo/IDN60801/IDN60801.95768.json

Data quality

Most of these data are generated automatically and are frequently updated. Quality checks on data are not normally performed. It is possible for incorrect values to appear. Refer to information at About Latest Weather Observations and please check the disclaimer before using these data.